sensor_id;sensor_type;location;lat;lon;timestamp;temperature;humidity
20921;DHT22;10620;52.472;21.028;2022-12-29T00:00:10;5.90;99.90
20921;DHT22;10620;52.472;21.028;2022-12-29T00:02:39;5.90;99.90
20921;DHT22;10620;52.472;21.028;2022-12-29T00:05:08;6.00;99.90
20921;DHT22;10620;52.472;21.028;2022-12-29T00:07:37;6.00;99.90
20921;DHT22;10620;52.472;21.028;2022-12-29T00:10:05;5.90;99.90
20921;DHT22;10620;52.472;21.028;2022-12-29T00:12:36;6.00;99.90
20921;DHT22;10620;52.472;21.028;2022-12-29T00:15:22;5.90;99.90
20921;DHT22;10620;52.472;21.028;2022-12-29T00:18:08;5.90;99.90
20921;DHT22;10620;52.472;21.028;2022-12-29T00:20:37;5.90;99.90
20921;DHT22;10620;52.472;21.028;2022-12-29T00:23:23;5.90;99.90
20921;DHT22;10620;52.472;21.028;2022-12-29T00:26:12;5.90;99.90
20921;DHT22;10620;52.472;21.028;2022-12-29T00:29:00;5.90;99.90
20921;DHT22;10620;52.472;21.028;2022-12-29T00:31:48;5.90;99.90
20921;DHT22;10620;52.472;21.028;2022-12-29T00:34:34;5.90;99.90
20921;DHT22;10620;52.472;21.028;2022-12-29T00:37:20;5.90;99.90
20921;DHT22;10620;52.472;21.028;2022-12-29T00:40:09;5.90;99.90
20921;DHT22;10620;52.472;21.028;2022-12-29T00:42:55;5.90;99.90
20921;DHT22;10620;52.472;21.028;2022-12-29T00:45:43;5.90;99.90
20921;DHT22;10620;52.472;21.028;2022-12-29T00:48:11;5.90;99.90
20921;DHT22;10620;52.472;21.028;2022-12-29T00:50:40;6.00;99.90
20921;DHT22;10620;52.472;21.028;2022-12-29T00:53:07;6.10;99.90
20921;DHT22;10620;52.472;21.028;2022-12-29T00:55:36;6.10;99.90
20921;DHT22;10620;52.472;21.028;2022-12-29T00:58:05;6.00;99.90
20921;DHT22;10620;52.472;21.028;2022-12-29T01:00:33;6.10;99.90
20921;DHT22;10620;52.472;21.028;2022-12-29T01:03:03;6.00;99.90
20921;DHT22;10620;52.472;21.028;2022-12-29T01:05:35;6.10;99.90
20921;DHT22;10620;52.472;21.028;2022-12-29T01:10:35;6.10;99.90
20921;DHT22;10620;52.472;21.028;2022-12-29T01:13:04;6.00;99.90
20921;DHT22;10620;52.472;21.028;2022-12-29T01:18:01;6.10;99.90
20921;DHT22;10620;52.472;21.028;2022-12-29T01:25:30;6.10;99.90
20921;DHT22;10620;52.472;21.028;2022-12-29T01:27:59;6.10;99.90
20921;DHT22;10620;52.472;21.028;2022-12-29T01:32:56;6.10;99.90
20921;DHT22;10620;52.472;21.028;2022-12-29T01:35:24;6.10;99.90
20921;DHT22;10620;52.472;21.028;2022-12-29T01:37:53;6.10;99.90
20921;DHT22;10620;52.472;21.028;2022-12-29T01:40:22;6.10;99.90
20921;DHT22;10620;52.472;21.028;2022-12-29T01:42:51;6.10;99.90
20921;DHT22;10620;52.472;21.028;2022-12-29T01:45:20;6.10;99.90
20921;DHT22;10620;52.472;21.028;2022-12-29T01:47:50;6.10;99.90
20921;DHT22;10620;52.472;21.028;2022-12-29T01:50:21;6.10;99.90
20921;DHT22;10620;52.472;21.028;2022-12-29T01:52:51;6.10;99.90
20921;DHT22;10620;52.472;21.028;2022-12-29T01:55:23;6.10;99.90
20921;DHT22;10620;52.472;21.028;2022-12-29T02:00:22;6.10;99.90
20921;DHT22;10620;52.472;21.028;2022-12-29T02:02:51;6.10;99.90
20921;DHT22;10620;52.472;21.028;2022-12-29T02:05:35;6.10;99.90
20921;DHT22;10620;52.472;21.028;2022-12-29T02:08:06;6.10;99.90
20921;DHT22;10620;52.472;21.028;2022-12-29T02:10:36;6.10;99.90
20921;DHT22;10620;52.472;21.028;2022-12-29T02:13:05;6.00;99.90
20921;DHT22;10620;52.472;21.028;2022-12-29T02:15:42;6.00;99.90
20921;DHT22;10620;52.472;21.028;2022-12-29T02:18:19;5.90;99.90
20921;DHT22;10620;52.472;21.028;2022-12-29T02:23:25;5.80;99.90
20921;DHT22;10620;52.472;21.028;2022-12-29T02:26:05;5.70;99.90
20921;DHT22;10620;52.472;21.028;2022-12-29T02:28:44;5.60;99.90
20921;DHT22;10620;52.472;21.028;2022-12-29T02:31:17;5.50;99.90
20921;DHT22;10620;52.472;21.028;2022-12-29T02:33:54;5.50;99.90
20921;DHT22;10620;52.472;21.028;2022-12-29T02:36:26;5.50;99.90
20921;DHT22;10620;52.472;21.028;2022-12-29T02:39:00;5.40;99.90
20921;DHT22;10620;52.472;21.028;2022-12-29T02:41:31;5.30;99.90
20921;DHT22;10620;52.472;21.028;2022-12-29T02:44:02;5.40;99.90
20921;DHT22;10620;52.472;21.028;2022-12-29T02:46:35;5.40;99.90
20921;DHT22;10620;52.472;21.028;2022-12-29T02:49:08;5.30;99.90
20921;DHT22;10620;52.472;21.028;2022-12-29T02:51:40;5.30;99.90
20921;DHT22;10620;52.472;21.028;2022-12-29T02:54:11;5.30;99.90
20921;DHT22;10620;52.472;21.028;2022-12-29T02:56:57;5.20;99.90
20921;DHT22;10620;52.472;21.028;2022-12-29T02:59:26;5.10;99.90
20921;DHT22;10620;52.472;21.028;2022-12-29T03:02:05;5.10;99.90
20921;DHT22;10620;52.472;21.028;2022-12-29T03:04:58;5.10;99.90
20921;DHT22;10620;52.472;21.028;2022-12-29T03:07:32;5.00;99.90
20921;DHT22;10620;52.472;21.028;2022-12-29T03:10:04;5.00;99.90
20921;DHT22;10620;52.472;21.028;2022-12-29T03:12:37;4.90;99.90
20921;DHT22;10620;52.472;21.028;2022-12-29T03:15:28;4.80;99.90
20921;DHT22;10620;52.472;21.028;2022-12-29T03:18:19;4.80;99.90
20921;DHT22;10620;52.472;21.028;2022-12-29T03:20:51;4.70;99.90
20921;DHT22;10620;52.472;21.028;2022-12-29T03:23:22;4.70;99.90
20921;DHT22;10620;52.472;21.028;2022-12-29T03:25:54;4.70;99.90
20921;DHT22;10620;52.472;21.028;2022-12-29T03:28:25;4.60;99.90
20921;DHT22;10620;52.472;21.028;2022-12-29T03:30:57;4.60;99.90
20921;DHT22;10620;52.472;21.028;2022-12-29T03:33:29;4.60;99.90
20921;DHT22;10620;52.472;21.028;2022-12-29T03:36:02;4.50;99.90
20921;DHT22;10620;52.472;21.028;2022-12-29T03:38:33;4.60;99.90
20921;DHT22;10620;52.472;21.028;2022-12-29T03:41:03;4.60;99.90
20921;DHT22;10620;52.472;21.028;2022-12-29T03:43:33;4.50;99.90
20921;DHT22;10620;52.472;21.028;2022-12-29T03:46:03;4.60;99.90
20921;DHT22;10620;52.472;21.028;2022-12-29T03:48:33;4.50;99.90
20921;DHT22;10620;52.472;21.028;2022-12-29T03:51:03;4.50;99.90
20921;DHT22;10620;52.472;21.028;2022-12-29T03:53:32;4.50;99.90
20921;DHT22;10620;52.472;21.028;2022-12-29T03:56:02;4.50;99.90
20921;DHT22;10620;52.472;21.028;2022-12-29T03:58:31;4.40;99.90
20921;DHT22;10620;52.472;21.028;2022-12-29T04:01:17;4.40;99.90
20921;DHT22;10620;52.472;21.028;2022-12-29T04:03:47;4.40;99.90
20921;DHT22;10620;52.472;21.028;2022-12-29T04:06:16;4.40;99.90
20921;DHT22;10620;52.472;21.028;2022-12-29T04:08:49;4.40;99.90
20921;DHT22;10620;52.472;21.028;2022-12-29T04:11:18;4.30;99.90
20921;DHT22;10620;52.472;21.028;2022-12-29T04:13:46;4.40;99.90
20921;DHT22;10620;52.472;21.028;2022-12-29T04:16:19;4.50;99.90
20921;DHT22;10620;52.472;21.028;2022-12-29T04:18:49;4.40;99.90
20921;DHT22;10620;52.472;21.028;2022-12-29T04:21:17;4.50;99.90
20921;DHT22;10620;52.472;21.028;2022-12-29T04:23:47;4.40;99.90
20921;DHT22;10620;52.472;21.028;2022-12-29T04:26:16;4.30;99.90
20921;DHT22;10620;52.472;21.028;2022-12-29T04:28:55;4.30;99.90
20921;DHT22;10620;52.472;21.028;2022-12-29T04:31:42;4.30;99.90
20921;DHT22;10620;52.472;21.028;2022-12-29T04:34:13;4.30;99.90
20921;DHT22;10620;52.472;21.028;2022-12-29T04:36:42;4.20;99.90
20921;DHT22;10620;52.472;21.028;2022-12-29T04:39:12;4.10;99.90
20921;DHT22;10620;52.472;21.028;2022-12-29T04:41:41;4.10;99.90
20921;DHT22;10620;52.472;21.028;2022-12-29T04:44:15;4.10;99.90
20921;DHT22;10620;52.472;21.028;2022-12-29T04:47:03;4.10;99.90
20921;DHT22;10620;52.472;21.028;2022-12-29T04:49:53;4.10;99.90
20921;DHT22;10620;52.472;21.028;2022-12-29T04:52:47;4.00;99.90
20921;DHT22;10620;52.472;21.028;2022-12-29T04:55:16;4.10;99.90
20921;DHT22;10620;52.472;21.028;2022-12-29T04:57:45;4.00;99.90
20921;DHT22;10620;52.472;21.028;2022-12-29T05:00:19;4.10;99.90
20921;DHT22;10620;52.472;21.028;2022-12-29T05:02:47;4.00;99.90
20921;DHT22;10620;52.472;21.028;2022-12-29T05:05:18;3.90;99.90
20921;DHT22;10620;52.472;21.028;2022-12-29T05:07:49;4.00;99.90
20921;DHT22;10620;52.472;21.028;2022-12-29T05:10:18;4.00;99.90
20921;DHT22;10620;52.472;21.028;2022-12-29T05:12:49;4.00;99.90
20921;DHT22;10620;52.472;21.028;2022-12-29T05:15:18;4.00;99.90
20921;DHT22;10620;52.472;21.028;2022-12-29T05:17:46;4.00;99.90
20921;DHT22;10620;52.472;21.028;2022-12-29T05:20:15;4.00;99.90
20921;DHT22;10620;52.472;21.028;2022-12-29T05:22:45;4.10;99.90
20921;DHT22;10620;52.472;21.028;2022-12-29T05:25:14;4.10;99.90
20921;DHT22;10620;52.472;21.028;2022-12-29T05:28:09;4.10;99.90
20921;DHT22;10620;52.472;21.028;2022-12-29T05:30:48;4.00;99.90
20921;DHT22;10620;52.472;21.028;2022-12-29T05:33:19;3.90;99.90
20921;DHT22;10620;52.472;21.028;2022-12-29T05:35:50;4.00;99.90
20921;DHT22;10620;52.472;21.028;2022-12-29T05:38:21;4.00;99.90
20921;DHT22;10620;52.472;21.028;2022-12-29T05:40:50;4.00;99.90
20921;DHT22;10620;52.472;21.028;2022-12-29T05:43:36;4.00;99.90
20921;DHT22;10620;52.472;21.028;2022-12-29T05:46:37;3.90;99.90
20921;DHT22;10620;52.472;21.028;2022-12-29T05:49:15;4.00;99.90
20921;DHT22;10620;52.472;21.028;2022-12-29T05:52:03;4.10;99.90
20921;DHT22;10620;52.472;21.028;2022-12-29T05:54:34;4.00;99.90
20921;DHT22;10620;52.472;21.028;2022-12-29T05:57:08;3.90;99.90
20921;DHT22;10620;52.472;21.028;2022-12-29T05:59:39;3.90;99.90
20921;DHT22;10620;52.472;21.028;2022-12-29T06:02:08;4.00;99.90
20921;DHT22;10620;52.472;21.028;2022-12-29T06:04:38;3.90;99.90
20921;DHT22;10620;52.472;21.028;2022-12-29T06:07:07;3.90;99.90
20921;DHT22;10620;52.472;21.028;2022-12-29T06:09:47;3.90;99.90
20921;DHT22;10620;52.472;21.028;2022-12-29T06:12:16;3.90;99.90
20921;DHT22;10620;52.472;21.028;2022-12-29T06:14:47;3.90;99.90
20921;DHT22;10620;52.472;21.028;2022-12-29T06:17:17;3.80;99.90
20921;DHT22;10620;52.472;21.028;2022-12-29T06:19:47;3.60;99.90
20921;DHT22;10620;52.472;21.028;2022-12-29T06:22:17;3.60;99.90
20921;DHT22;10620;52.472;21.028;2022-12-29T06:24:47;3.70;99.90
20921;DHT22;10620;52.472;21.028;2022-12-29T06:27:16;3.60;99.90
20921;DHT22;10620;52.472;21.028;2022-12-29T06:29:45;3.50;99.90
20921;DHT22;10620;52.472;21.028;2022-12-29T06:32:14;3.60;99.90
20921;DHT22;10620;52.472;21.028;2022-12-29T06:34:48;3.60;99.90
20921;DHT22;10620;52.472;21.028;2022-12-29T06:37:17;3.70;99.90
20921;DHT22;10620;52.472;21.028;2022-12-29T06:39:47;3.70;99.90
20921;DHT22;10620;52.472;21.028;2022-12-29T06:42:16;3.80;99.90
20921;DHT22;10620;52.472;21.028;2022-12-29T06:44:44;3.80;99.90
20921;DHT22;10620;52.472;21.028;2022-12-29T06:47:14;3.90;99.90
20921;DHT22;10620;52.472;21.028;2022-12-29T06:49:43;4.00;99.90
20921;DHT22;10620;52.472;21.028;2022-12-29T06:52:11;4.00;99.90
20921;DHT22;10620;52.472;21.028;2022-12-29T06:54:40;4.00;99.90
20921;DHT22;10620;52.472;21.028;2022-12-29T06:57:10;4.00;99.90
20921;DHT22;10620;52.472;21.028;2022-12-29T06:59:38;4.10;99.90
20921;DHT22;10620;52.472;21.028;2022-12-29T07:02:08;4.10;99.90
20921;DHT22;10620;52.472;21.028;2022-12-29T07:04:38;4.10;99.90
20921;DHT22;10620;52.472;21.028;2022-12-29T07:07:06;4.10;99.90
20921;DHT22;10620;52.472;21.028;2022-12-29T07:09:35;4.10;99.90
20921;DHT22;10620;52.472;21.028;2022-12-29T07:12:04;4.10;99.90
20921;DHT22;10620;52.472;21.028;2022-12-29T07:14:34;4.20;99.90
20921;DHT22;10620;52.472;21.028;2022-12-29T07:17:09;4.20;99.90
20921;DHT22;10620;52.472;21.028;2022-12-29T07:19:38;4.20;99.90
20921;DHT22;10620;52.472;21.028;2022-12-29T07:22:07;4.20;99.90
20921;DHT22;10620;52.472;21.028;2022-12-29T07:24:36;4.40;99.90
20921;DHT22;10620;52.472;21.028;2022-12-29T07:27:05;4.20;99.90
20921;DHT22;10620;52.472;21.028;2022-12-29T07:29:34;4.30;99.90
20921;DHT22;10620;52.472;21.028;2022-12-29T07:32:04;4.20;99.90
20921;DHT22;10620;52.472;21.028;2022-12-29T07:34:34;4.20;99.90
20921;DHT22;10620;52.472;21.028;2022-12-29T07:37:03;4.20;99.90
20921;DHT22;10620;52.472;21.028;2022-12-29T07:39:32;4.20;99.90
20921;DHT22;10620;52.472;21.028;2022-12-29T07:42:00;4.30;99.90
20921;DHT22;10620;52.472;21.028;2022-12-29T07:44:40;4.40;99.90
20921;DHT22;10620;52.472;21.028;2022-12-29T07:47:27;4.50;99.90
20921;DHT22;10620;52.472;21.028;2022-12-29T07:49:55;4.60;99.90
20921;DHT22;10620;52.472;21.028;2022-12-29T07:52:25;4.70;99.90
20921;DHT22;10620;52.472;21.028;2022-12-29T07:54:54;4.80;99.90
20921;DHT22;10620;52.472;21.028;2022-12-29T07:57:24;4.80;99.90
20921;DHT22;10620;52.472;21.028;2022-12-29T08:00:02;5.00;99.90
20921;DHT22;10620;52.472;21.028;2022-12-29T08:02:38;5.00;99.90
20921;DHT22;10620;52.472;21.028;2022-12-29T08:05:06;5.10;99.90
20921;DHT22;10620;52.472;21.028;2022-12-29T08:07:37;5.20;99.90
20921;DHT22;10620;52.472;21.028;2022-12-29T08:10:06;5.20;99.90
20921;DHT22;10620;52.472;21.028;2022-12-29T08:12:35;5.30;99.90
20921;DHT22;10620;52.472;21.028;2022-12-29T08:15:06;5.40;99.90
20921;DHT22;10620;52.472;21.028;2022-12-29T08:17:35;5.50;99.90
20921;DHT22;10620;52.472;21.028;2022-12-29T08:20:04;5.60;99.90
20921;DHT22;10620;52.472;21.028;2022-12-29T08:22:33;5.70;99.90
20921;DHT22;10620;52.472;21.028;2022-12-29T08:25:01;5.70;99.90
20921;DHT22;10620;52.472;21.028;2022-12-29T08:27:30;5.60;99.90
20921;DHT22;10620;52.472;21.028;2022-12-29T08:29:59;5.70;99.90
20921;DHT22;10620;52.472;21.028;2022-12-29T08:32:29;5.60;99.90
20921;DHT22;10620;52.472;21.028;2022-12-29T08:34:58;5.70;99.90
20921;DHT22;10620;52.472;21.028;2022-12-29T08:37:27;5.70;99.90
20921;DHT22;10620;52.472;21.028;2022-12-29T08:39:57;5.90;99.90
20921;DHT22;10620;52.472;21.028;2022-12-29T08:42:30;6.00;99.90
20921;DHT22;10620;52.472;21.028;2022-12-29T08:44:59;6.10;99.90
20921;DHT22;10620;52.472;21.028;2022-12-29T08:47:29;6.20;99.90
20921;DHT22;10620;52.472;21.028;2022-12-29T08:49:58;6.20;99.90
20921;DHT22;10620;52.472;21.028;2022-12-29T08:52:26;6.20;99.90
20921;DHT22;10620;52.472;21.028;2022-12-29T08:54:55;6.20;99.90
20921;DHT22;10620;52.472;21.028;2022-12-29T08:57:24;6.20;99.90
20921;DHT22;10620;52.472;21.028;2022-12-29T09:00:11;6.30;99.90
20921;DHT22;10620;52.472;21.028;2022-12-29T09:02:41;6.20;99.90
20921;DHT22;10620;52.472;21.028;2022-12-29T09:05:10;6.20;99.90
20921;DHT22;10620;52.472;21.028;2022-12-29T09:07:39;6.30;99.90
20921;DHT22;10620;52.472;21.028;2022-12-29T09:10:08;6.40;99.90
20921;DHT22;10620;52.472;21.028;2022-12-29T09:12:36;6.50;99.90
20921;DHT22;10620;52.472;21.028;2022-12-29T11:22:21;8.40;99.90
20921;DHT22;10620;52.472;21.028;2022-12-29T11:24:50;8.40;99.90
20921;DHT22;10620;52.472;21.028;2022-12-29T11:27:20;8.40;99.90
20921;DHT22;10620;52.472;21.028;2022-12-29T11:29:50;8.40;99.90
20921;DHT22;10620;52.472;21.028;2022-12-29T11:32:21;8.30;99.90
20921;DHT22;10620;52.472;21.028;2022-12-29T11:34:55;8.30;99.90
20921;DHT22;10620;52.472;21.028;2022-12-29T11:37:27;8.30;99.90
20921;DHT22;10620;52.472;21.028;2022-12-29T11:39:57;8.20;99.90
20921;DHT22;10620;52.472;21.028;2022-12-29T11:42:30;8.20;99.90
20921;DHT22;10620;52.472;21.028;2022-12-29T11:45:03;8.20;99.90
20921;DHT22;10620;52.472;21.028;2022-12-29T11:47:37;8.30;99.90
20921;DHT22;10620;52.472;21.028;2022-12-29T11:50:06;8.20;99.90
20921;DHT22;10620;52.472;21.028;2022-12-29T11:52:37;8.20;99.90
20921;DHT22;10620;52.472;21.028;2022-12-29T11:55:16;8.20;99.90
20921;DHT22;10620;52.472;21.028;2022-12-29T11:57:46;8.30;99.90
20921;DHT22;10620;52.472;21.028;2022-12-29T12:00:15;8.20;99.90
20921;DHT22;10620;52.472;21.028;2022-12-29T12:02:54;8.20;99.90
20921;DHT22;10620;52.472;21.028;2022-12-29T12:05:28;8.30;99.90
20921;DHT22;10620;52.472;21.028;2022-12-29T12:08:01;8.30;99.90
20921;DHT22;10620;52.472;21.028;2022-12-29T12:10:31;8.30;99.90
20921;DHT22;10620;52.472;21.028;2022-12-29T12:13:07;8.30;99.90
20921;DHT22;10620;52.472;21.028;2022-12-29T12:15:39;8.30;99.90
20921;DHT22;10620;52.472;21.028;2022-12-29T12:18:16;8.40;99.90
20921;DHT22;10620;52.472;21.028;2022-12-29T12:20:48;8.40;99.90
20921;DHT22;10620;52.472;21.028;2022-12-29T12:23:30;8.40;99.90
20921;DHT22;10620;52.472;21.028;2022-12-29T12:26:02;8.40;99.90
20921;DHT22;10620;52.472;21.028;2022-12-29T12:28:34;8.40;99.90
20921;DHT22;10620;52.472;21.028;2022-12-29T12:31:05;8.40;99.90
20921;DHT22;10620;52.472;21.028;2022-12-29T12:33:35;8.30;99.90
20921;DHT22;10620;52.472;21.028;2022-12-29T12:36:23;8.40;99.90
20921;DHT22;10620;52.472;21.028;2022-12-29T12:38:55;8.60;99.90
20921;DHT22;10620;52.472;21.028;2022-12-29T12:41:32;8.60;99.90
20921;DHT22;10620;52.472;21.028;2022-12-29T12:44:05;8.60;99.90
20921;DHT22;10620;52.472;21.028;2022-12-29T12:52:14;8.60;99.90
20921;DHT22;10620;52.472;21.028;2022-12-29T12:54:52;8.70;99.90
20921;DHT22;10620;52.472;21.028;2022-12-29T12:57:27;8.70;99.90
20921;DHT22;10620;52.472;21.028;2022-12-29T13:00:00;8.60;99.90
20921;DHT22;10620;52.472;21.028;2022-12-29T13:02:34;8.60;99.90
20921;DHT22;10620;52.472;21.028;2022-12-29T13:05:13;8.60;99.90
20921;DHT22;10620;52.472;21.028;2022-12-29T13:07:57;8.60;99.90
20921;DHT22;10620;52.472;21.028;2022-12-29T13:10:35;8.50;99.90
20921;DHT22;10620;52.472;21.028;2022-12-29T13:13:12;8.60;99.90
20921;DHT22;10620;52.472;21.028;2022-12-29T13:15:43;8.60;99.90
20921;DHT22;10620;52.472;21.028;2022-12-29T13:18:17;8.70;99.90
20921;DHT22;10620;52.472;21.028;2022-12-29T13:20:51;8.70;99.90
20921;DHT22;10620;52.472;21.028;2022-12-29T13:23:23;8.70;99.90
20921;DHT22;10620;52.472;21.028;2022-12-29T13:25:57;8.70;99.90
20921;DHT22;10620;52.472;21.028;2022-12-29T13:28:29;8.70;99.90
20921;DHT22;10620;52.472;21.028;2022-12-29T13:31:00;8.80;99.90
20921;DHT22;10620;52.472;21.028;2022-12-29T13:33:33;8.70;99.90
20921;DHT22;10620;52.472;21.028;2022-12-29T13:36:08;8.90;99.90
20921;DHT22;10620;52.472;21.028;2022-12-29T13:38:39;8.70;99.90
20921;DHT22;10620;52.472;21.028;2022-12-29T13:41:11;8.70;99.90
20921;DHT22;10620;52.472;21.028;2022-12-29T13:43:42;8.80;99.90
20921;DHT22;10620;52.472;21.028;2022-12-29T13:46:15;8.80;99.90
20921;DHT22;10620;52.472;21.028;2022-12-29T13:48:47;8.90;99.90
20921;DHT22;10620;52.472;21.028;2022-12-29T13:51:20;8.90;99.90
20921;DHT22;10620;52.472;21.028;2022-12-29T13:53:56;8.60;99.90
20921;DHT22;10620;52.472;21.028;2022-12-29T13:56:31;8.70;99.90
20921;DHT22;10620;52.472;21.028;2022-12-29T13:59:04;8.70;99.90
20921;DHT22;10620;52.472;21.028;2022-12-29T14:01:34;8.80;99.90
20921;DHT22;10620;52.472;21.028;2022-12-29T14:04:08;8.70;99.90
20921;DHT22;10620;52.472;21.028;2022-12-29T14:06:38;8.80;99.90
20921;DHT22;10620;52.472;21.028;2022-12-29T14:11:59;8.90;99.90
20921;DHT22;10620;52.472;21.028;2022-12-29T14:14:28;8.80;99.90
20921;DHT22;10620;52.472;21.028;2022-12-29T14:17:08;8.80;99.90
20921;DHT22;10620;52.472;21.028;2022-12-29T14:19:42;8.50;99.90
20921;DHT22;10620;52.472;21.028;2022-12-29T14:22:12;8.40;99.90
20921;DHT22;10620;52.472;21.028;2022-12-29T14:24:42;8.30;99.90
20921;DHT22;10620;52.472;21.028;2022-12-29T14:30:00;8.10;99.90
20921;DHT22;10620;52.472;21.028;2022-12-29T14:32:41;8.50;99.90
20921;DHT22;10620;52.472;21.028;2022-12-29T14:35:38;8.10;99.90
20921;DHT22;10620;52.472;21.028;2022-12-29T14:38:24;8.00;99.90
20921;DHT22;10620;52.472;21.028;2022-12-29T14:40:53;8.20;99.90
20921;DHT22;10620;52.472;21.028;2022-12-29T14:43:54;8.10;99.90
20921;DHT22;10620;52.472;21.028;2022-12-29T14:46:25;8.10;99.90
20921;DHT22;10620;52.472;21.028;2022-12-29T14:48:54;8.00;99.90
20921;DHT22;10620;52.472;21.028;2022-12-29T14:51:28;8.20;99.90
20921;DHT22;10620;52.472;21.028;2022-12-29T14:53:58;7.80;99.90
20921;DHT22;10620;52.472;21.028;2022-12-29T14:56:27;7.60;99.90
20921;DHT22;10620;52.472;21.028;2022-12-29T14:58:59;7.50;99.90
20921;DHT22;10620;52.472;21.028;2022-12-29T15:01:36;7.80;99.90
20921;DHT22;10620;52.472;21.028;2022-12-29T15:04:14;7.60;99.90
20921;DHT22;10620;52.472;21.028;2022-12-29T15:06:43;7.50;99.90
20921;DHT22;10620;52.472;21.028;2022-12-29T15:09:17;7.70;99.90
20921;DHT22;10620;52.472;21.028;2022-12-29T17:21:33;8.40;99.90
20921;DHT22;10620;52.472;21.028;2022-12-29T17:24:03;8.30;99.90
20921;DHT22;10620;52.472;21.028;2022-12-29T17:26:32;8.50;99.90
20921;DHT22;10620;52.472;21.028;2022-12-29T17:29:01;8.50;99.90
20921;DHT22;10620;52.472;21.028;2022-12-29T17:31:30;8.70;99.90
20921;DHT22;10620;52.472;21.028;2022-12-29T17:33:59;8.60;99.90
20921;DHT22;10620;52.472;21.028;2022-12-29T17:36:28;8.80;99.90
20921;DHT22;10620;52.472;21.028;2022-12-29T17:38:57;8.90;99.90
20921;DHT22;10620;52.472;21.028;2022-12-29T17:41:26;8.70;99.90
20921;DHT22;10620;52.472;21.028;2022-12-29T17:43:55;8.70;99.90
20921;DHT22;10620;52.472;21.028;2022-12-29T21:03:22;7.40;99.90
20921;DHT22;10620;52.472;21.028;2022-12-29T21:05:52;7.50;99.90
20921;DHT22;10620;52.472;21.028;2022-12-29T21:08:22;7.60;99.90
20921;DHT22;10620;52.472;21.028;2022-12-29T21:10:51;7.60;99.90
20921;DHT22;10620;52.472;21.028;2022-12-29T21:13:20;8.40;99.90
20921;DHT22;10620;52.472;21.028;2022-12-29T21:15:53;7.70;99.90
20921;DHT22;10620;52.472;21.028;2022-12-29T21:18:24;7.80;99.90
20921;DHT22;10620;52.472;21.028;2022-12-29T21:20:55;7.90;99.90
20921;DHT22;10620;52.472;21.028;2022-12-29T21:23:24;7.90;99.90
20921;DHT22;10620;52.472;21.028;2022-12-29T21:25:53;8.00;99.90
20921;DHT22;10620;52.472;21.028;2022-12-29T21:28:22;7.90;99.90
20921;DHT22;10620;52.472;21.028;2022-12-29T21:30:52;8.00;99.90
20921;DHT22;10620;52.472;21.028;2022-12-29T21:33:21;8.00;99.90
20921;DHT22;10620;52.472;21.028;2022-12-29T21:35:51;8.00;99.90
20921;DHT22;10620;52.472;21.028;2022-12-29T21:38:19;8.10;99.90
20921;DHT22;10620;52.472;21.028;2022-12-29T21:40:48;8.30;99.90
20921;DHT22;10620;52.472;21.028;2022-12-29T21:43:17;8.10;99.90
20921;DHT22;10620;52.472;21.028;2022-12-29T21:45:48;8.00;99.90
20921;DHT22;10620;52.472;21.028;2022-12-29T21:48:16;8.00;99.90
20921;DHT22;10620;52.472;21.028;2022-12-29T21:50:53;8.20;99.90
20921;DHT22;10620;52.472;21.028;2022-12-29T21:53:40;8.20;99.90
20921;DHT22;10620;52.472;21.028;2022-12-29T21:56:09;8.20;99.90
20921;DHT22;10620;52.472;21.028;2022-12-29T21:58:39;8.20;99.90
20921;DHT22;10620;52.472;21.028;2022-12-29T22:01:26;8.30;99.90
20921;DHT22;10620;52.472;21.028;2022-12-29T22:04:13;8.10;99.90
20921;DHT22;10620;52.472;21.028;2022-12-29T22:07:02;8.10;99.90
20921;DHT22;10620;52.472;21.028;2022-12-29T22:09:48;8.10;99.90
20921;DHT22;10620;52.472;21.028;2022-12-29T22:12:35;8.00;99.90
20921;DHT22;10620;52.472;21.028;2022-12-29T22:15:21;8.00;99.90
20921;DHT22;10620;52.472;21.028;2022-12-29T22:42:39;7.80;99.90
20921;DHT22;10620;52.472;21.028;2022-12-29T22:45:08;7.90;99.90
20921;DHT22;10620;52.472;21.028;2022-12-29T22:47:37;7.70;99.90
20921;DHT22;10620;52.472;21.028;2022-12-29T22:50:06;7.70;99.90
20921;DHT22;10620;52.472;21.028;2022-12-29T22:52:35;7.60;99.90
20921;DHT22;10620;52.472;21.028;2022-12-29T22:55:04;7.60;99.90
20921;DHT22;10620;52.472;21.028;2022-12-29T22:57:34;7.60;99.90
20921;DHT22;10620;52.472;21.028;2022-12-29T23:00:05;7.60;99.90
20921;DHT22;10620;52.472;21.028;2022-12-29T23:02:35;7.60;99.90
20921;DHT22;10620;52.472;21.028;2022-12-29T23:05:05;7.60;99.90
20921;DHT22;10620;52.472;21.028;2022-12-29T23:07:35;7.70;99.90
20921;DHT22;10620;52.472;21.028;2022-12-29T23:10:03;7.70;99.90
20921;DHT22;10620;52.472;21.028;2022-12-29T23:12:32;7.80;99.90
20921;DHT22;10620;52.472;21.028;2022-12-29T23:15:01;7.90;99.90
20921;DHT22;10620;52.472;21.028;2022-12-29T23:17:31;7.90;99.90
20921;DHT22;10620;52.472;21.028;2022-12-29T23:20:00;8.00;99.90
20921;DHT22;10620;52.472;21.028;2022-12-29T23:22:28;8.00;99.90
20921;DHT22;10620;52.472;21.028;2022-12-29T23:24:57;8.30;99.90
20921;DHT22;10620;52.472;21.028;2022-12-29T23:27:25;8.20;99.90
20921;DHT22;10620;52.472;21.028;2022-12-29T23:29:54;8.20;99.90
20921;DHT22;10620;52.472;21.028;2022-12-29T23:32:23;8.20;99.90
20921;DHT22;10620;52.472;21.028;2022-12-29T23:34:52;8.20;99.90
20921;DHT22;10620;52.472;21.028;2022-12-29T23:37:21;8.30;99.90
20921;DHT22;10620;52.472;21.028;2022-12-29T23:39:50;8.20;99.90
20921;DHT22;10620;52.472;21.028;2022-12-29T23:42:18;8.20;99.90
20921;DHT22;10620;52.472;21.028;2022-12-29T23:44:48;8.30;99.90
20921;DHT22;10620;52.472;21.028;2022-12-29T23:47:17;8.30;99.90
20921;DHT22;10620;52.472;21.028;2022-12-29T23:49:45;8.20;99.90
20921;DHT22;10620;52.472;21.028;2022-12-29T23:52:15;8.20;99.90
20921;DHT22;10620;52.472;21.028;2022-12-29T23:54:44;8.20;99.90
20921;DHT22;10620;52.472;21.028;2022-12-29T23:57:15;8.20;99.90
20921;DHT22;10620;52.472;21.028;2022-12-29T23:59:44;8.10;99.90
